Latest Weather Observations for Murrurundi Gap

IDN60801

Issued at 5:05 pm EST Thursday 31 July 2014 (issued every 30 minutes, with the page automatically refreshed every 10 minutes)

About weather observations | Map of weather stations | Latest weather observations for NSW | Other Formats
Station Details ID: 061392 Name: MURRURUNDI GAP AWS Lat: -31.74 Lon: 150.79 Height: 729.4 m
Data from the previous 72 hours. | See also: Recent months for locations in New South Wales
Date/Time
EST
Temp
°C
App
Temp
°C
Dew
Point
Rel
Hum
%
Delta-T
°C
Wind Press
QNH
hPa
Press
MSL
hPa
Rain
since 9 am
mm
Dir
 
Spd
km/h
Gust
km/h
Spd
kts
Gust
kts
31/05:00pm 16.0 4.4 -1.1 31 7.4 NNW 50 61 27 33 1013.0 1013.1 0.0
31/04:30pm 16.6 5.7 -1.5 29 7.8 NNW 46 57 25 31 1012.7 - 0.0
31/04:00pm 16.9 6.1 -0.8 30 7.8 NW 46 57 25 31 1012.7 1012.9 0.0
31/03:30pm 16.7 5.8 -0.9 30 7.7 NNW 46 57 25 31 1013.1 - 0.0
31/03:00pm 16.9 6.7 -0.3 31 7.7 NNW 43 54 23 29 1013.6 1013.8 0.0
31/02:30pm 16.6 5.1 -0.1 32 7.4 NNW 50 61 27 33 1013.8 - 0.0
31/02:21pm 16.7 5.7 0.8 34 7.2 NW 48 67 26 36 1014.3 - 0.0
31/02:00pm 16.7 4.9 0.4 33 7.4 NNW 52 61 28 33 1014.5 1014.7 0.0
31/01:30pm 16.6 5.3 1.1 35 7.1 NW 50 65 27 35 1014.9 - 0.0
31/01:00pm 15.6 3.4 0.2 35 6.8 NW 54 65 29 35 1015.4 1015.7 0.0
31/12:30pm 15.6 3.7 -0.2 34 7.0 NW 52 63 28 34 1016.2 - 0.0
31/12:00pm 14.8 3.6 -0.5 35 6.7 NNW 48 61 26 33 1016.7 1017.0 0.0
31/11:30am 14.3 2.8 0.2 38 6.2 NNW 50 61 27 33 1017.4 - 0.0
31/11:00am 14.2 3.9 0.1 38 6.2 NW 44 56 24 30 1018.4 1018.7 0.0
31/10:36am 13.9 3.1 -0.5 37 6.2 NW 46 65 25 35 1018.4 - 0.0
31/10:30am 14.0 3.8 -0.1 38 6.1 NW 43 56 23 30 1018.9 - 0.0
31/10:00am 13.6 5.2 1.6 44 5.4 NNW 35 43 19 23 1019.5 1019.8 0.0
31/09:30am 12.8 4.3 1.2 45 5.1 NNW 35 43 19 23 1019.9 - 0.0
31/09:00am 11.9 3.8 1.3 48 4.7 NNW 33 39 18 21 1019.9 1020.2 0.0
31/08:30am 11.1 4.0 1.1 50 4.4 NW 28 32 15 17 1020.0 - 0.0
31/08:00am 10.4 3.2 0.4 50 4.2 NNW 28 32 15 17 1020.0 1020.3 0.0
31/07:30am 9.7 2.9 0.6 53 3.9 NW 26 33 14 18 1019.8 - 0.0
31/07:00am 9.3 2.1 0.7 55 3.6 NW 28 35 15 19 1019.5 1019.8 0.0
31/06:30am 8.8 2.4 1.0 58 3.3 NW 24 28 13 15 1019.6 - 0.0
31/06:00am 8.3 1.9 1.0 60 3.1 NW 24 26 13 14 1019.6 1019.9 0.0
31/05:30am 8.8 2.8 1.0 58 3.3 NW 22 24 12 13 1019.3 - 0.0
31/05:00am 8.8 2.4 0.8 57 3.4 NW 24 28 13 15 1019.4 1019.7 0.0
31/04:30am 9.8 3.4 0.9 54 3.8 NW 24 26 13 14 1019.3 - 0.0
31/04:00am 10.2 4.2 0.8 52 4.0 NW 22 24 12 13 1019.5 1019.8 0.0
31/03:30am 10.6 4.2 0.9 51 4.2 NW 24 28 13 15 1019.6 - 0.0
31/03:00am 10.0 4.4 1.4 55 3.7 NW 20 24 11 13 1019.7 1020.0 0.0
31/02:30am 10.1 4.5 1.2 54 3.9 NW 20 24 11 13 1019.9 - 0.0
31/02:00am 10.3 4.7 1.2 53 3.9 NW 20 22 11 12 1020.0 1020.3 0.0
31/01:30am 10.8 4.8 1.1 51 4.2 NNW 22 28 12 15 1020.0 - 0.0
31/01:00am 11.3 5.9 1.3 50 4.4 NNW 19 24 10 13 1020.3 1020.6 0.0
31/12:30am 11.3 5.9 1.0 49 4.5 NNW 19 22 10 12 1020.4 - 0.0
31/12:00am 11.4 5.4 1.1 49 4.5 NNW 22 28 12 15 1020.6 1020.9 0.0
 
Date/Time
EST
Temp
°C
App
Temp
°C
Dew
Point
Rel
Hum
%
Delta-T
°C
Wind Press
QNH
hPa
Press
MSL
hPa
Rain
since 9 am
mm
Dir
 
Spd
km/h
Gust
km/h
Spd
kts
Gust
kts
30/11:30pm 12.0 5.7 1.3 48 4.7 NNW 24 30 13 16 1020.7 - 0.0
30/11:00pm 12.2 5.9 1.5 48 4.7 NNW 24 30 13 16 1020.9 1021.2 0.0
30/10:30pm 10.9 4.3 2.0 54 4.0 NW 26 30 14 16 1020.9 - 0.0
30/10:00pm 11.3 3.9 1.8 52 4.2 NW 30 33 16 18 1020.9 1021.2 0.0
30/09:30pm 11.3 3.9 2.1 53 4.1 NW 30 35 16 19 1020.8 - 0.0
30/09:00pm 11.1 3.8 2.2 54 4.0 NNW 30 35 16 19 1020.9 1021.2 0.0
30/08:30pm 12.5 4.6 2.1 49 4.7 NNW 33 37 18 20 1020.7 - 0.0
30/08:00pm 11.6 4.3 2.6 54 4.1 NW 30 32 16 17 1020.7 1021.0 0.0
30/07:30pm 12.4 6.3 2.6 51 4.5 NW 24 30 13 16 1020.9 - 0.0
30/07:00pm 12.6 6.5 2.7 51 4.5 NW 24 30 13 16 1020.6 1020.9 0.0
30/06:30pm 13.1 6.2 2.6 49 4.8 NNW 28 33 15 18 1020.3 - 0.0
30/06:00pm 13.6 5.4 2.8 48 5.0 NNW 35 43 19 23 1019.6 1019.9 0.0
30/05:30pm 13.3 6.1 3.1 50 4.7 NNW 30 37 16 20 1019.9 - 0.0
30/05:00pm 14.4 7.6 2.9 46 5.3 NNW 28 35 15 19 1019.9 1020.2 0.0
30/04:30pm 14.8 6.6 2.7 44 5.6 NNW 35 41 19 22 1019.7 - 0.0
30/04:00pm 15.2 7.9 2.7 43 5.8 NNW 30 37 16 20 1020.2 1020.5 0.0
30/03:30pm 15.1 8.5 2.3 42 5.9 NNW 26 32 14 17 1020.3 - 0.0
30/03:00pm 15.2 7.5 2.1 41 6.0 NW 32 39 17 21 1020.6 1020.9 0.0
30/02:30pm 15.1 8.0 1.6 40 6.2 NW 28 37 15 20 1020.7 - 0.0
30/02:00pm 15.1 7.5 2.6 43 5.8 NW 32 43 17 23 1020.4 1020.7 0.0
30/01:30pm 14.7 7.8 2.3 43 5.7 NNW 28 35 15 19 1020.5 - 0.0
30/01:00pm 14.1 7.1 2.0 44 5.5 NNW 28 39 15 21 1020.8 1021.1 0.0
30/12:30pm 13.4 6.7 1.7 45 5.3 NNW 26 35 14 19 1021.2 - 0.0
30/12:00pm 13.5 6.5 2.1 46 5.2 NW 28 37 15 20 1021.7 1022.0 0.0
30/11:30am 13.1 5.8 2.6 49 4.8 NNW 30 44 16 24 1022.0 - 0.0
30/11:00am 12.5 4.7 1.8 48 4.8 NNW 32 41 17 22 1022.2 1022.5 0.0
30/10:30am 12.0 3.2 1.3 48 4.7 NW 37 43 20 23 1022.5 - 0.0
30/10:00am 12.0 4.5 1.1 47 4.8 NNW 30 35 16 19 1023.3 1023.6 0.0
30/09:30am 11.2 4.7 0.6 48 4.6 NNW 24 30 13 16 1023.8 - 0.0
30/09:00am 10.6 3.8 0.9 51 4.2 NNW 26 32 14 17 1023.7 1024.1 0.0
30/08:30am 9.9 3.6 1.5 56 3.7 NW 24 28 13 15 1023.5 - 0.0
30/08:00am 9.1 2.8 1.3 58 3.3 NW 24 28 13 15 1023.3 1023.6 0.0
30/07:30am 7.3 0.9 0.7 63 2.7 NW 24 28 13 15 1022.9 - 0.0
30/07:00am 8.0 1.6 0.7 60 3.0 NW 24 28 13 15 1022.5 1022.9 0.0
30/06:30am 7.9 1.4 0.6 60 3.1 NW 24 26 13 14 1022.4 - 0.0
30/06:00am 7.5 1.1 0.7 62 2.8 NW 24 28 13 15 1022.0 1022.3 0.0
30/05:30am 7.9 1.8 0.6 60 3.1 NW 22 24 12 13 1021.9 - 0.0
30/05:00am 8.0 1.9 0.7 60 3.0 NW 22 24 12 13 1021.5 1021.9 0.0
30/04:30am 7.9 1.9 1.1 62 2.9 NW 22 24 12 13 1021.4 - 0.0
30/04:00am 7.9 2.3 1.1 62 2.9 NW 20 22 11 12 1021.5 1021.9 0.0
30/03:30am 8.2 2.6 1.1 61 3.0 NW 20 24 11 13 1021.3 - 0.0
30/03:00am 7.6 2.2 1.0 63 2.8 NW 19 22 10 12 1021.4 1021.8 0.0
30/02:30am 9.0 2.3 1.2 58 3.3 NW 26 28 14 15 1021.2 - 0.0
30/02:00am 8.9 2.9 1.3 59 3.2 NW 22 26 12 14 1021.4 1021.8 0.0
30/01:30am 9.4 3.4 1.3 57 3.5 NW 22 26 12 14 1021.4 - 0.0
30/01:00am 10.0 3.6 1.1 54 3.8 NW 24 30 13 16 1021.5 1021.9 0.0
30/12:30am 10.3 3.6 1.2 53 3.9 NNW 26 32 14 17 1021.5 - 0.0
30/12:00am 10.7 4.0 1.3 52 4.1 NNW 26 32 14 17 1021.7 1022.0 0.0
 
Date/Time
EST
Temp
°C
App
Temp
°C
Dew
Point
Rel
Hum
%
Delta-T
°C
Wind Press
QNH
hPa
Press
MSL
hPa
Rain
since 9 am
mm
Dir
 
Spd
km/h
Gust
km/h
Spd
kts
Gust
kts
29/11:30pm 10.5 3.8 1.6 54 3.9 NNW 26 32 14 17 1021.9 - 0.0
29/11:00pm 10.7 3.7 1.8 54 3.9 NNW 28 35 15 19 1022.0 1022.3 0.0
29/10:30pm 10.9 3.5 2.0 54 4.0 NNW 30 37 16 20 1022.0 - 0.0
29/10:00pm 9.8 2.5 2.4 60 3.3 NNW 30 33 16 18 1021.8 1022.1 0.0
29/09:30pm 9.8 3.3 2.9 62 3.1 NNW 26 30 14 16 1021.9 - 0.0
29/09:00pm 9.8 3.7 2.6 61 3.2 NNW 24 32 13 17 1021.8 1022.1 0.0
29/08:30pm 9.6 3.9 2.7 62 3.1 NW 22 28 12 15 1021.9 - 0.0
29/08:00pm 10.1 3.6 2.7 60 3.3 NNW 26 30 14 16 1021.4 1021.8 0.0
29/07:30pm 10.6 5.3 3.2 60 3.4 NW 20 26 11 14 1021.4 - 0.0
29/07:00pm 11.1 4.7 3.2 58 3.6 NW 26 32 14 17 1020.9 1021.2 0.0
29/06:30pm 12.1 4.3 2.8 53 4.2 NNW 33 43 18 23 1020.2 - 0.0
29/06:00pm 12.0 4.4 3.0 54 4.1 NNW 32 39 17 21 1019.9 1020.2 0.0
29/05:30pm 12.3 4.6 3.3 54 4.2 NNW 33 39 18 21 1019.2 - 0.0
29/05:00pm 12.7 4.2 3.4 53 4.3 NNW 37 43 20 23 1019.0 1019.3 0.0
29/04:30pm 13.2 4.3 3.3 51 4.6 NNW 39 48 21 26 1019.2 - 0.0
29/04:00pm 13.1 4.0 4.0 54 4.3 NNW 41 52 22 28 1018.8 1019.0 0.0
29/03:30pm 13.2 3.8 4.4 55 4.2 NNW 43 54 23 29 1018.7 - 0.0
29/03:00pm 13.3 4.6 4.2 54 4.3 NW 39 50 21 27 1019.2 1019.5 0.0
29/02:30pm 13.2 4.4 3.8 53 4.4 NW 39 50 21 27 1019.7 - 0.0
29/02:00pm 13.0 5.4 3.7 53 4.4 NW 33 46 18 25 1019.9 1020.2 0.0
29/01:30pm 13.0 5.4 3.7 53 4.4 NNW 33 43 18 23 1019.9 - 0.0
29/01:00pm 12.7 5.6 3.6 54 4.2 NNW 30 37 16 20 1020.9 1021.2 0.0
29/12:30pm 12.5 5.0 3.7 55 4.1 NW 32 41 17 22 1021.2 - 0.0
29/12:00pm 12.5 6.0 4.7 59 3.7 NNW 28 35 15 19 1022.2 1022.5 0.0
29/11:30am 11.7 4.7 4.0 59 3.6 NNW 30 39 16 21 1022.8 - 0.0
29/11:00am 11.2 4.2 4.0 61 3.3 NNW 30 39 16 21 1023.2 1023.5 0.0
29/10:30am 10.7 4.0 3.7 62 3.2 NW 28 35 15 19 1023.5 - 0.0
29/10:00am 10.3 4.8 3.8 64 3.0 NW 22 28 12 15 1023.6 1023.9 0.0
29/09:30am 9.6 2.9 3.6 66 2.7 NNW 28 32 15 17 1023.5 - 0.0
29/09:00am 9.1 3.3 4.3 72 2.2 NW 24 28 13 15 1023.5 1023.8 0.0
29/08:30am 8.4 2.6 4.2 75 1.9 NW 24 28 13 15 1023.3 - 0.0
29/08:00am 7.5 2.5 3.7 77 1.7 NW 19 22 10 12 1023.3 1023.6 0.0
29/07:30am 5.6 -0.5 2.8 82 1.2 NW 24 24 13 13 1022.8 - 0.0
29/07:00am 6.8 1.5 3.1 77 1.6 WNW 20 24 11 13 1022.5 1022.9 0.0
29/06:30am 6.5 1.2 2.9 78 1.6 NW 20 24 11 13 1022.2 - 0.0
29/06:00am 7.1 1.4 3.0 75 1.8 NW 22 24 12 13 1021.8 1022.1 0.0
29/05:30am 7.0 1.3 2.7 74 1.9 NNW 22 26 12 14 1021.3 - 0.0
29/05:00am 6.9 1.8 2.8 75 1.8 NW 19 24 10 13 1021.4 1021.8 0.0
29/04:30am 6.8 2.5 3.1 77 1.6 WNW 15 17 8 9 1021.3 - 0.0
29/04:00am 6.6 2.6 2.9 77 1.6 WNW 13 17 7 9 1021.3 1021.7 0.0
29/03:30am 6.7 2.4 3.1 78 1.6 WNW 15 19 8 10 1021.1 - 0.0
29/03:00am 6.9 2.6 3.5 79 1.5 WNW 15 19 8 10 1021.1 1021.4 0.0
29/02:30am 5.7 0.4 3.2 84 1.1 NW 20 22 11 12 1021.2 - 0.0
29/02:00am 5.7 -0.3 3.2 84 1.1 NW 24 28 13 15 1021.3 1021.7 0.0
29/01:30am 6.4 0.0 3.2 80 1.4 NW 26 30 14 16 1021.1 - 0.0
29/01:00am 6.2 0.6 3.4 82 1.2 NW 22 24 12 13 1021.3 1021.7 0.0
29/12:30am 6.2 0.6 3.4 82 1.2 NW 22 26 12 14 1021.7 - 0.0
29/12:00am 6.9 0.9 3.5 79 1.5 NNW 24 28 13 15 1021.8 1022.1 0.0
 
Date/Time
EST
Temp
°C
App
Temp
°C
Dew
Point
Rel
Hum
%
Delta-T
°C
Wind Press
QNH
hPa
Press
MSL
hPa
Rain
since 9 am
mm
Dir
 
Spd
km/h
Gust
km/h
Spd
kts
Gust
kts
28/11:30pm 7.6 2.0 3.6 76 1.8 NW 22 24 12 13 1022.2 - 0.0
28/11:00pm 7.4 2.4 3.6 77 1.7 NW 19 22 10 12 1022.2 1022.5 0.0
28/10:30pm 7.7 2.7 3.6 75 1.8 NW 19 20 10 11 1022.3 - 0.0
28/10:00pm 8.0 2.8 3.7 74 1.9 NW 20 22 11 12 1022.3 1022.6 0.0
28/09:30pm 8.1 2.9 3.8 74 1.9 WNW 20 24 11 13 1022.2 - 0.0
28/09:00pm 8.3 3.3 3.8 73 2.0 NW 19 22 10 12 1022.1 1022.4 0.0
28/08:30pm 8.5 3.3 3.8 72 2.1 NW 20 22 11 12 1022.2 - 0.0
28/08:00pm 8.7 3.5 3.7 71 2.3 NW 20 24 11 13 1022.1 1022.4 0.0
28/07:30pm 9.0 3.1 3.8 70 2.4 NNW 24 30 13 16 1021.8 - 0.0
28/07:00pm 9.6 3.7 3.8 67 2.6 N 24 32 13 17 1021.7 1022.0 0.0
28/06:30pm 9.7 4.6 4.1 68 2.6 NNW 20 26 11 14 1021.7 - 0.0
28/06:00pm 9.7 4.9 4.5 70 2.4 N 19 26 10 14 1021.4 1021.8 0.0
28/05:30pm 10.3 4.9 4.7 68 2.6 NNW 22 28 12 15 1021.4 - 0.0

Other Formats:

Comma delimited format used in spreadsheet applications
http://www.bom.gov.au/fwo/IDN60801/IDN60801.95747.axf

JavaScript Object Notation format (JSON) in row-major order
http://www.bom.gov.au/fwo/IDN60801/IDN60801.95747.json